sensor_id;sensor_type;location;lat;lon;timestamp;P1;durP1;ratioP1;P2;durP2;ratioP2
36747;SDS011;22716;51.556;5.080;2023-02-13T00:01:34;40.63;;;22.13;;
36747;SDS011;22716;51.556;5.080;2023-02-13T00:04:03;33.00;;;19.23;;
36747;SDS011;22716;51.556;5.080;2023-02-13T00:09:01;38.60;;;21.97;;
36747;SDS011;22716;51.556;5.080;2023-02-13T00:11:29;39.77;;;22.63;;
36747;SDS011;22716;51.556;5.080;2023-02-13T00:13:58;33.67;;;19.20;;
36747;SDS011;22716;51.556;5.080;2023-02-13T00:16:27;38.43;;;20.97;;
36747;SDS011;22716;51.556;5.080;2023-02-13T00:18:58;38.90;;;20.97;;
36747;SDS011;22716;51.556;5.080;2023-02-13T00:21:27;36.37;;;21.93;;
36747;SDS011;22716;51.556;5.080;2023-02-13T00:23:55;34.90;;;19.73;;
36747;SDS011;22716;51.556;5.080;2023-02-13T00:26:24;35.53;;;21.07;;
36747;SDS011;22716;51.556;5.080;2023-02-13T00:28:53;39.07;;;20.17;;
36747;SDS011;22716;51.556;5.080;2023-02-13T00:31:23;39.43;;;21.83;;
36747;SDS011;22716;51.556;5.080;2023-02-13T00:33:52;38.37;;;21.80;;
36747;SDS011;22716;51.556;5.080;2023-02-13T00:36:24;38.50;;;21.27;;
36747;SDS011;22716;51.556;5.080;2023-02-13T00:38:53;32.67;;;19.90;;
36747;SDS011;22716;51.556;5.080;2023-02-13T00:41:22;41.10;;;21.87;;
36747;SDS011;22716;51.556;5.080;2023-02-13T00:43:51;38.50;;;22.33;;
36747;SDS011;22716;51.556;5.080;2023-02-13T00:46:20;34.67;;;21.80;;
36747;SDS011;22716;51.556;5.080;2023-02-13T00:48:49;32.43;;;19.47;;
36747;SDS011;22716;51.556;5.080;2023-02-13T00:51:18;36.43;;;21.23;;
36747;SDS011;22716;51.556;5.080;2023-02-13T00:53:49;34.03;;;19.60;;
36747;SDS011;22716;51.556;5.080;2023-02-13T00:56:18;40.80;;;21.87;;
36747;SDS011;22716;51.556;5.080;2023-02-13T00:58:47;35.27;;;20.03;;
36747;SDS011;22716;51.556;5.080;2023-02-13T01:01:16;37.27;;;22.00;;
36747;SDS011;22716;51.556;5.080;2023-02-13T01:03:44;37.50;;;20.87;;
36747;SDS011;22716;51.556;5.080;2023-02-13T01:06:13;35.73;;;20.37;;
36747;SDS011;22716;51.556;5.080;2023-02-13T01:08:42;40.07;;;21.07;;
36747;SDS011;22716;51.556;5.080;2023-02-13T01:11:13;36.08;;;20.98;;
36747;SDS011;22716;51.556;5.080;2023-02-13T01:13:43;36.13;;;21.00;;
36747;SDS011;22716;51.556;5.080;2023-02-13T01:16:12;37.10;;;21.90;;
36747;SDS011;22716;51.556;5.080;2023-02-13T01:18:42;35.20;;;20.80;;
36747;SDS011;22716;51.556;5.080;2023-02-13T01:21:14;39.63;;;21.47;;
36747;SDS011;22716;51.556;5.080;2023-02-13T01:23:44;34.70;;;20.00;;
36747;SDS011;22716;51.556;5.080;2023-02-13T01:26:19;35.97;;;19.40;;
36747;SDS011;22716;51.556;5.080;2023-02-13T01:28:50;48.27;;;22.37;;
36747;SDS011;22716;51.556;5.080;2023-02-13T01:31:22;37.47;;;21.93;;
36747;SDS011;22716;51.556;5.080;2023-02-13T01:33:51;39.17;;;19.97;;
36747;SDS011;22716;51.556;5.080;2023-02-13T01:36:23;34.77;;;21.37;;
36747;SDS011;22716;51.556;5.080;2023-02-13T01:38:52;39.13;;;22.17;;
36747;SDS011;22716;51.556;5.080;2023-02-13T01:41:25;37.80;;;22.63;;
36747;SDS011;22716;51.556;5.080;2023-02-13T01:43:55;37.27;;;21.63;;
36747;SDS011;22716;51.556;5.080;2023-02-13T01:46:27;39.73;;;21.90;;
36747;SDS011;22716;51.556;5.080;2023-02-13T01:49:00;34.33;;;20.77;;
36747;SDS011;22716;51.556;5.080;2023-02-13T01:51:32;35.58;;;20.92;;
36747;SDS011;22716;51.556;5.080;2023-02-13T01:54:04;36.57;;;21.80;;
36747;SDS011;22716;51.556;5.080;2023-02-13T01:56:40;41.47;;;21.95;;
36747;SDS011;22716;51.556;5.080;2023-02-13T01:59:13;41.67;;;21.92;;
36747;SDS011;22716;51.556;5.080;2023-02-13T02:01:46;42.67;;;23.03;;
36747;SDS011;22716;51.556;5.080;2023-02-13T02:04:17;37.93;;;20.97;;
36747;SDS011;22716;51.556;5.080;2023-02-13T02:06:50;38.22;;;21.27;;
36747;SDS011;22716;51.556;5.080;2023-02-13T02:09:24;39.60;;;22.03;;
36747;SDS011;22716;51.556;5.080;2023-02-13T02:12:00;35.57;;;21.47;;
36747;SDS011;22716;51.556;5.080;2023-02-13T02:14:33;39.43;;;22.63;;
36747;SDS011;22716;51.556;5.080;2023-02-13T02:17:02;41.43;;;22.13;;
36747;SDS011;22716;51.556;5.080;2023-02-13T02:19:34;38.10;;;22.13;;
36747;SDS011;22716;51.556;5.080;2023-02-13T02:22:20;36.87;;;22.00;;
36747;SDS011;22716;51.556;5.080;2023-02-13T02:25:20;39.40;;;22.17;;
36747;SDS011;22716;51.556;5.080;2023-02-13T02:34:18;38.90;;;22.43;;
36747;SDS011;22716;51.556;5.080;2023-02-13T02:36:57;40.00;;;21.90;;
36747;SDS011;22716;51.556;5.080;2023-02-13T02:39:38;41.50;;;25.03;;
36747;SDS011;22716;51.556;5.080;2023-02-13T02:42:17;44.87;;;23.60;;
36747;SDS011;22716;51.556;5.080;2023-02-13T02:44:54;37.57;;;22.20;;
36747;SDS011;22716;51.556;5.080;2023-02-13T02:47:33;38.30;;;23.63;;
36747;SDS011;22716;51.556;5.080;2023-02-13T02:50:26;37.87;;;22.20;;
36747;SDS011;22716;51.556;5.080;2023-02-13T02:53:05;37.87;;;24.80;;
36747;SDS011;22716;51.556;5.080;2023-02-13T02:55:45;38.43;;;23.13;;
36747;SDS011;22716;51.556;5.080;2023-02-13T02:58:19;41.77;;;23.30;;
36747;SDS011;22716;51.556;5.080;2023-02-13T03:01:06;41.87;;;24.60;;
36747;SDS011;22716;51.556;5.080;2023-02-13T03:06:36;38.80;;;23.27;;
36747;SDS011;22716;51.556;5.080;2023-02-13T03:09:13;35.17;;;21.37;;
36747;SDS011;22716;51.556;5.080;2023-02-13T03:12:00;40.27;;;24.43;;
36747;SDS011;22716;51.556;5.080;2023-02-13T03:14:43;39.73;;;23.67;;
36747;SDS011;22716;51.556;5.080;2023-02-13T03:17:13;37.70;;;21.30;;
36747;SDS011;22716;51.556;5.080;2023-02-13T03:20:02;39.60;;;21.77;;
36747;SDS011;22716;51.556;5.080;2023-02-13T03:22:57;39.27;;;23.57;;
36747;SDS011;22716;51.556;5.080;2023-02-13T03:25:34;40.63;;;24.07;;
36747;SDS011;22716;51.556;5.080;2023-02-13T03:28:08;42.43;;;23.50;;
36747;SDS011;22716;51.556;5.080;2023-02-13T03:30:58;36.57;;;20.80;;
36747;SDS011;22716;51.556;5.080;2023-02-13T03:33:39;34.60;;;22.03;;
36747;SDS011;22716;51.556;5.080;2023-02-13T03:36:21;35.90;;;22.90;;
36747;SDS011;22716;51.556;5.080;2023-02-13T03:39:14;37.00;;;22.67;;
36747;SDS011;22716;51.556;5.080;2023-02-13T03:41:48;39.53;;;22.97;;
36747;SDS011;22716;51.556;5.080;2023-02-13T03:44:24;41.55;;;21.88;;
36747;SDS011;22716;51.556;5.080;2023-02-13T03:46:56;44.20;;;25.58;;
36747;SDS011;22716;51.556;5.080;2023-02-13T03:49:29;40.90;;;23.30;;
36747;SDS011;22716;51.556;5.080;2023-02-13T03:52:21;40.77;;;21.83;;
36747;SDS011;22716;51.556;5.080;2023-02-13T03:54:55;43.87;;;24.63;;
36747;SDS011;22716;51.556;5.080;2023-02-13T03:57:38;43.60;;;24.23;;
36747;SDS011;22716;51.556;5.080;2023-02-13T04:00:22;41.43;;;26.30;;
36747;SDS011;22716;51.556;5.080;2023-02-13T04:02:56;41.40;;;23.37;;
36747;SDS011;22716;51.556;5.080;2023-02-13T04:05:34;42.40;;;25.63;;
36747;SDS011;22716;51.556;5.080;2023-02-13T04:08:09;37.67;;;22.93;;
36747;SDS011;22716;51.556;5.080;2023-02-13T04:10:39;38.70;;;22.77;;
36747;SDS011;22716;51.556;5.080;2023-02-13T04:13:14;43.87;;;24.13;;
36747;SDS011;22716;51.556;5.080;2023-02-13T04:15:51;41.17;;;23.60;;
36747;SDS011;22716;51.556;5.080;2023-02-13T04:18:24;43.80;;;23.07;;
36747;SDS011;22716;51.556;5.080;2023-02-13T04:20:56;37.53;;;23.10;;
36747;SDS011;22716;51.556;5.080;2023-02-13T04:23:31;44.47;;;21.90;;
36747;SDS011;22716;51.556;5.080;2023-02-13T04:26:00;42.37;;;22.67;;
36747;SDS011;22716;51.556;5.080;2023-02-13T04:28:32;33.83;;;21.70;;
36747;SDS011;22716;51.556;5.080;2023-02-13T04:31:01;42.73;;;23.30;;
36747;SDS011;22716;51.556;5.080;2023-02-13T04:33:30;37.03;;;21.30;;
36747;SDS011;22716;51.556;5.080;2023-02-13T04:35:59;38.63;;;24.57;;
36747;SDS011;22716;51.556;5.080;2023-02-13T04:38:27;41.37;;;22.87;;
36747;SDS011;22716;51.556;5.080;2023-02-13T04:40:59;39.57;;;22.17;;
36747;SDS011;22716;51.556;5.080;2023-02-13T04:43:27;39.43;;;23.03;;
36747;SDS011;22716;51.556;5.080;2023-02-13T04:45:56;37.20;;;22.23;;
36747;SDS011;22716;51.556;5.080;2023-02-13T04:48:25;38.10;;;21.80;;
36747;SDS011;22716;51.556;5.080;2023-02-13T04:50:54;42.30;;;24.33;;
36747;SDS011;22716;51.556;5.080;2023-02-13T04:53:22;39.50;;;22.90;;
36747;SDS011;22716;51.556;5.080;2023-02-13T04:55:54;35.40;;;21.83;;
36747;SDS011;22716;51.556;5.080;2023-02-13T04:58:23;41.03;;;23.60;;
36747;SDS011;22716;51.556;5.080;2023-02-13T05:00:51;42.63;;;23.70;;
36747;SDS011;22716;51.556;5.080;2023-02-13T05:03:20;37.30;;;23.40;;
36747;SDS011;22716;51.556;5.080;2023-02-13T05:05:49;39.03;;;22.77;;
36747;SDS011;22716;51.556;5.080;2023-02-13T05:08:18;38.60;;;22.60;;
36747;SDS011;22716;51.556;5.080;2023-02-13T05:10:47;40.47;;;23.87;;
36747;SDS011;22716;51.556;5.080;2023-02-13T05:13:18;36.40;;;22.33;;
36747;SDS011;22716;51.556;5.080;2023-02-13T05:15:48;38.33;;;23.33;;
36747;SDS011;22716;51.556;5.080;2023-02-13T05:18:17;36.83;;;23.77;;
36747;SDS011;22716;51.556;5.080;2023-02-13T05:20:45;43.20;;;23.87;;
36747;SDS011;22716;51.556;5.080;2023-02-13T05:23:34;44.33;;;24.17;;
36747;SDS011;22716;51.556;5.080;2023-02-13T05:26:00;39.57;;;25.03;;
36747;SDS011;22716;51.556;5.080;2023-02-13T05:28:32;41.13;;;24.93;;
36747;SDS011;22716;51.556;5.080;2023-02-13T05:31:13;40.43;;;23.10;;
36747;SDS011;22716;51.556;5.080;2023-02-13T05:33:42;38.47;;;22.33;;
36747;SDS011;22716;51.556;5.080;2023-02-13T05:36:11;44.30;;;23.53;;
36747;SDS011;22716;51.556;5.080;2023-02-13T05:38:41;43.73;;;23.53;;
36747;SDS011;22716;51.556;5.080;2023-02-13T05:41:09;41.47;;;23.63;;
36747;SDS011;22716;51.556;5.080;2023-02-13T05:43:42;40.30;;;23.80;;
36747;SDS011;22716;51.556;5.080;2023-02-13T05:46:11;43.57;;;24.40;;
36747;SDS011;22716;51.556;5.080;2023-02-13T05:48:39;43.00;;;25.67;;
36747;SDS011;22716;51.556;5.080;2023-02-13T05:51:08;39.10;;;23.13;;
36747;SDS011;22716;51.556;5.080;2023-02-13T05:53:37;42.57;;;24.13;;
36747;SDS011;22716;51.556;5.080;2023-02-13T05:56:06;43.43;;;25.63;;
36747;SDS011;22716;51.556;5.080;2023-02-13T05:58:35;43.60;;;24.13;;
36747;SDS011;22716;51.556;5.080;2023-02-13T06:01:06;42.57;;;24.63;;
36747;SDS011;22716;51.556;5.080;2023-02-13T06:03:35;44.67;;;24.67;;
36747;SDS011;22716;51.556;5.080;2023-02-13T06:06:04;44.17;;;25.20;;
36747;SDS011;22716;51.556;5.080;2023-02-13T06:08:34;42.47;;;24.93;;
36747;SDS011;22716;51.556;5.080;2023-02-13T06:11:03;51.43;;;26.17;;
36747;SDS011;22716;51.556;5.080;2023-02-13T06:13:32;49.17;;;25.63;;
36747;SDS011;22716;51.556;5.080;2023-02-13T06:16:00;43.53;;;26.00;;
36747;SDS011;22716;51.556;5.080;2023-02-13T06:18:32;40.83;;;23.77;;
36747;SDS011;22716;51.556;5.080;2023-02-13T06:21:01;41.20;;;23.90;;
36747;SDS011;22716;51.556;5.080;2023-02-13T06:23:31;50.57;;;25.73;;
36747;SDS011;22716;51.556;5.080;2023-02-13T06:26:01;39.83;;;23.60;;
36747;SDS011;22716;51.556;5.080;2023-02-13T06:28:31;42.50;;;25.13;;
36747;SDS011;22716;51.556;5.080;2023-02-13T06:31:00;40.23;;;23.27;;
36747;SDS011;22716;51.556;5.080;2023-02-13T06:33:32;45.97;;;25.37;;
36747;SDS011;22716;51.556;5.080;2023-02-13T06:36:00;45.40;;;25.27;;
36747;SDS011;22716;51.556;5.080;2023-02-13T06:38:29;41.60;;;23.80;;
36747;SDS011;22716;51.556;5.080;2023-02-13T06:40:59;42.10;;;24.83;;
36747;SDS011;22716;51.556;5.080;2023-02-13T06:43:29;45.33;;;27.03;;
36747;SDS011;22716;51.556;5.080;2023-02-13T06:45:57;42.83;;;25.27;;
36747;SDS011;22716;51.556;5.080;2023-02-13T06:48:26;46.53;;;25.67;;
36747;SDS011;22716;51.556;5.080;2023-02-13T06:50:58;45.10;;;24.53;;
36747;SDS011;22716;51.556;5.080;2023-02-13T06:53:27;42.67;;;24.80;;
36747;SDS011;22716;51.556;5.080;2023-02-13T06:55:56;41.20;;;23.60;;
36747;SDS011;22716;51.556;5.080;2023-02-13T06:58:25;51.10;;;25.43;;
36747;SDS011;22716;51.556;5.080;2023-02-13T07:00:53;47.50;;;26.10;;
36747;SDS011;22716;51.556;5.080;2023-02-13T07:03:22;44.53;;;25.50;;
36747;SDS011;22716;51.556;5.080;2023-02-13T07:05:51;46.47;;;27.83;;
36747;SDS011;22716;51.556;5.080;2023-02-13T07:08:23;48.00;;;26.10;;
36747;SDS011;22716;51.556;5.080;2023-02-13T07:10:52;43.27;;;24.97;;
36747;SDS011;22716;51.556;5.080;2023-02-13T07:13:20;46.27;;;23.93;;
36747;SDS011;22716;51.556;5.080;2023-02-13T07:15:49;41.70;;;24.10;;
36747;SDS011;22716;51.556;5.080;2023-02-13T07:18:18;49.37;;;26.93;;
36747;SDS011;22716;51.556;5.080;2023-02-13T07:20:47;46.63;;;25.90;;
36747;SDS011;22716;51.556;5.080;2023-02-13T07:23:15;42.27;;;25.90;;
36747;SDS011;22716;51.556;5.080;2023-02-13T07:25:46;48.00;;;26.53;;
36747;SDS011;22716;51.556;5.080;2023-02-13T07:28:15;46.30;;;25.57;;
36747;SDS011;22716;51.556;5.080;2023-02-13T07:30:44;54.30;;;27.33;;
36747;SDS011;22716;51.556;5.080;2023-02-13T07:33:13;49.50;;;27.77;;
36747;SDS011;22716;51.556;5.080;2023-02-13T07:35:44;76.57;;;26.30;;
36747;SDS011;22716;51.556;5.080;2023-02-13T07:38:14;51.53;;;27.30;;
36747;SDS011;22716;51.556;5.080;2023-02-13T07:40:43;45.93;;;25.80;;
36747;SDS011;22716;51.556;5.080;2023-02-13T07:43:15;51.60;;;25.43;;
36747;SDS011;22716;51.556;5.080;2023-02-13T07:45:43;52.13;;;26.00;;
36747;SDS011;22716;51.556;5.080;2023-02-13T07:48:13;53.50;;;26.83;;
36747;SDS011;22716;51.556;5.080;2023-02-13T07:50:41;51.03;;;24.63;;
36747;SDS011;22716;51.556;5.080;2023-02-13T07:53:10;50.60;;;23.80;;
36747;SDS011;22716;51.556;5.080;2023-02-13T07:55:39;47.10;;;24.33;;
36747;SDS011;22716;51.556;5.080;2023-02-13T07:58:08;46.47;;;23.23;;
36747;SDS011;22716;51.556;5.080;2023-02-13T08:00:39;52.50;;;24.13;;
36747;SDS011;22716;51.556;5.080;2023-02-13T08:03:08;44.87;;;23.67;;
36747;SDS011;22716;51.556;5.080;2023-02-13T08:05:37;41.20;;;22.67;;
36747;SDS011;22716;51.556;5.080;2023-02-13T08:08:06;47.17;;;22.17;;
36747;SDS011;22716;51.556;5.080;2023-02-13T08:10:35;52.83;;;24.07;;
36747;SDS011;22716;51.556;5.080;2023-02-13T08:13:16;52.27;;;24.47;;
36747;SDS011;22716;51.556;5.080;2023-02-13T08:15:48;57.07;;;24.80;;
36747;SDS011;22716;51.556;5.080;2023-02-13T08:18:17;38.47;;;22.00;;
36747;SDS011;22716;51.556;5.080;2023-02-13T08:20:46;47.47;;;24.70;;
36747;SDS011;22716;51.556;5.080;2023-02-13T08:23:14;43.87;;;22.50;;
36747;SDS011;22716;51.556;5.080;2023-02-13T08:25:43;49.17;;;23.83;;
36747;SDS011;22716;51.556;5.080;2023-02-13T08:28:14;37.73;;;21.70;;
36747;SDS011;22716;51.556;5.080;2023-02-13T08:30:43;43.50;;;23.27;;
36747;SDS011;22716;51.556;5.080;2023-02-13T08:33:14;39.07;;;20.97;;
36747;SDS011;22716;51.556;5.080;2023-02-13T08:35:43;36.23;;;20.40;;
36747;SDS011;22716;51.556;5.080;2023-02-13T08:38:11;36.67;;;21.40;;
36747;SDS011;22716;51.556;5.080;2023-02-13T08:40:40;39.80;;;22.20;;
36747;SDS011;22716;51.556;5.080;2023-02-13T08:43:09;36.53;;;21.57;;
36747;SDS011;22716;51.556;5.080;2023-02-13T08:45:38;36.63;;;21.53;;
36747;SDS011;22716;51.556;5.080;2023-02-13T08:48:06;33.60;;;20.20;;
36747;SDS011;22716;51.556;5.080;2023-02-13T08:50:38;37.57;;;21.03;;
36747;SDS011;22716;51.556;5.080;2023-02-13T08:53:06;34.83;;;19.60;;
36747;SDS011;22716;51.556;5.080;2023-02-13T08:55:35;34.37;;;19.97;;
36747;SDS011;22716;51.556;5.080;2023-02-13T08:58:04;31.90;;;19.13;;
36747;SDS011;22716;51.556;5.080;2023-02-13T09:00:33;35.63;;;21.33;;
36747;SDS011;22716;51.556;5.080;2023-02-13T09:03:01;33.20;;;19.63;;
36747;SDS011;22716;51.556;5.080;2023-02-13T09:05:31;31.20;;;18.77;;
36747;SDS011;22716;51.556;5.080;2023-02-13T09:08:03;32.90;;;20.03;;
36747;SDS011;22716;51.556;5.080;2023-02-13T09:10:32;46.50;;;19.60;;
36747;SDS011;22716;51.556;5.080;2023-02-13T09:13:01;35.07;;;20.53;;
36747;SDS011;22716;51.556;5.080;2023-02-13T09:15:30;34.07;;;20.63;;
36747;SDS011;22716;51.556;5.080;2023-02-13T09:18:00;37.43;;;18.93;;
36747;SDS011;22716;51.556;5.080;2023-02-13T09:20:29;35.10;;;20.30;;
36747;SDS011;22716;51.556;5.080;2023-02-13T09:22:57;33.87;;;20.80;;
36747;SDS011;22716;51.556;5.080;2023-02-13T09:25:29;31.93;;;19.67;;
36747;SDS011;22716;51.556;5.080;2023-02-13T09:27:58;33.87;;;21.27;;
36747;SDS011;22716;51.556;5.080;2023-02-13T09:30:27;34.13;;;21.07;;
36747;SDS011;22716;51.556;5.080;2023-02-13T09:32:56;32.77;;;19.97;;
36747;SDS011;22716;51.556;5.080;2023-02-13T09:35:25;29.53;;;19.97;;
36747;SDS011;22716;51.556;5.080;2023-02-13T09:37:54;35.13;;;19.43;;
36747;SDS011;22716;51.556;5.080;2023-02-13T09:40:24;28.60;;;17.83;;
36747;SDS011;22716;51.556;5.080;2023-02-13T09:43:02;32.60;;;19.63;;
36747;SDS011;22716;51.556;5.080;2023-02-13T09:45:34;32.03;;;19.07;;
36747;SDS011;22716;51.556;5.080;2023-02-13T09:48:04;27.60;;;17.07;;
36747;SDS011;22716;51.556;5.080;2023-02-13T09:50:33;26.40;;;16.80;;
36747;SDS011;22716;51.556;5.080;2023-02-13T09:53:03;27.63;;;18.60;;
36747;SDS011;22716;51.556;5.080;2023-02-13T09:55:34;29.03;;;18.40;;
36747;SDS011;22716;51.556;5.080;2023-02-13T09:58:20;29.13;;;16.65;;
36747;SDS011;22716;51.556;5.080;2023-02-13T10:01:01;27.80;;;17.77;;
36747;SDS011;22716;51.556;5.080;2023-02-13T10:03:33;32.13;;;19.53;;
36747;SDS011;22716;51.556;5.080;2023-02-13T10:06:13;34.23;;;18.13;;
36747;SDS011;22716;51.556;5.080;2023-02-13T10:08:56;27.03;;;18.07;;
36747;SDS011;22716;51.556;5.080;2023-02-13T10:11:41;28.73;;;18.23;;
36747;SDS011;22716;51.556;5.080;2023-02-13T10:14:37;25.83;;;16.20;;
36747;SDS011;22716;51.556;5.080;2023-02-13T10:17:13;29.13;;;16.63;;
36747;SDS011;22716;51.556;5.080;2023-02-13T10:19:46;31.23;;;18.23;;
36747;SDS011;22716;51.556;5.080;2023-02-13T10:22:20;26.23;;;15.50;;
36747;SDS011;22716;51.556;5.080;2023-02-13T10:24:55;21.17;;;14.57;;
36747;SDS011;22716;51.556;5.080;2023-02-13T10:27:29;30.73;;;16.02;;
36747;SDS011;22716;51.556;5.080;2023-02-13T10:30:07;26.25;;;15.65;;
36747;SDS011;22716;51.556;5.080;2023-02-13T10:32:48;22.07;;;14.03;;
36747;SDS011;22716;51.556;5.080;2023-02-13T10:35:36;21.50;;;15.03;;
36747;SDS011;22716;51.556;5.080;2023-02-13T10:38:11;23.47;;;13.43;;
36747;SDS011;22716;51.556;5.080;2023-02-13T10:40:47;21.43;;;14.10;;
36747;SDS011;22716;51.556;5.080;2023-02-13T10:43:28;20.52;;;14.05;;
36747;SDS011;22716;51.556;5.080;2023-02-13T10:46:06;24.07;;;15.73;;
36747;SDS011;22716;51.556;5.080;2023-02-13T10:49:00;23.23;;;14.97;;
36747;SDS011;22716;51.556;5.080;2023-02-13T10:51:42;22.07;;;15.77;;
36747;SDS011;22716;51.556;5.080;2023-02-13T10:54:21;21.50;;;13.03;;
36747;SDS011;22716;51.556;5.080;2023-02-13T10:57:01;21.90;;;14.10;;
36747;SDS011;22716;51.556;5.080;2023-02-13T10:59:46;21.83;;;14.53;;
36747;SDS011;22716;51.556;5.080;2023-02-13T11:02:27;22.20;;;14.83;;
36747;SDS011;22716;51.556;5.080;2023-02-13T11:04:59;21.53;;;14.23;;
36747;SDS011;22716;51.556;5.080;2023-02-13T11:07:34;21.57;;;14.27;;
36747;SDS011;22716;51.556;5.080;2023-02-13T11:10:12;21.23;;;13.73;;
36747;SDS011;22716;51.556;5.080;2023-02-13T11:12:43;25.53;;;16.60;;
36747;SDS011;22716;51.556;5.080;2023-02-13T11:15:20;22.00;;;14.90;;
36747;SDS011;22716;51.556;5.080;2023-02-13T11:17:56;22.90;;;14.70;;
36747;SDS011;22716;51.556;5.080;2023-02-13T11:20:29;24.25;;;15.15;;
36747;SDS011;22716;51.556;5.080;2023-02-13T11:26:03;21.07;;;13.37;;
36747;SDS011;22716;51.556;5.080;2023-02-13T11:28:36;17.90;;;13.23;;
36747;SDS011;22716;51.556;5.080;2023-02-13T11:31:11;19.53;;;11.73;;
36747;SDS011;22716;51.556;5.080;2023-02-13T11:33:44;19.90;;;13.57;;
36747;SDS011;22716;51.556;5.080;2023-02-13T11:36:13;33.67;;;12.40;;
36747;SDS011;22716;51.556;5.080;2023-02-13T11:38:43;14.77;;;11.60;;
36747;SDS011;22716;51.556;5.080;2023-02-13T11:41:12;14.83;;;10.80;;
36747;SDS011;22716;51.556;5.080;2023-02-13T11:43:44;15.77;;;10.47;;
36747;SDS011;22716;51.556;5.080;2023-02-13T11:46:18;15.57;;;10.40;;
36747;SDS011;22716;51.556;5.080;2023-02-13T11:48:58;16.60;;;10.73;;
36747;SDS011;22716;51.556;5.080;2023-02-13T11:51:39;18.37;;;10.77;;
36747;SDS011;22716;51.556;5.080;2023-02-13T11:54:19;15.57;;;10.17;;
36747;SDS011;22716;51.556;5.080;2023-02-13T11:57:00;16.37;;;9.87;;
36747;SDS011;22716;51.556;5.080;2023-02-13T11:59:32;15.07;;;9.57;;
36747;SDS011;22716;51.556;5.080;2023-02-13T12:02:14;11.27;;;8.70;;
36747;SDS011;22716;51.556;5.080;2023-02-13T12:04:49;13.40;;;10.03;;
36747;SDS011;22716;51.556;5.080;2023-02-13T12:07:20;14.70;;;10.15;;
36747;SDS011;22716;51.556;5.080;2023-02-13T12:09:53;11.47;;;8.57;;
36747;SDS011;22716;51.556;5.080;2023-02-13T12:12:32;13.73;;;9.77;;
36747;SDS011;22716;51.556;5.080;2023-02-13T12:15:13;14.30;;;9.20;;
36747;SDS011;22716;51.556;5.080;2023-02-13T12:17:46;12.93;;;9.67;;
36747;SDS011;22716;51.556;5.080;2023-02-13T12:20:24;11.50;;;8.50;;
36747;SDS011;22716;51.556;5.080;2023-02-13T12:23:00;15.93;;;10.50;;
36747;SDS011;22716;51.556;5.080;2023-02-13T12:25:39;13.10;;;10.40;;
36747;SDS011;22716;51.556;5.080;2023-02-13T12:28:16;12.93;;;9.97;;
36747;SDS011;22716;51.556;5.080;2023-02-13T12:31:07;15.73;;;10.93;;
36747;SDS011;22716;51.556;5.080;2023-02-13T12:37:00;17.90;;;9.50;;
36747;SDS011;22716;51.556;5.080;2023-02-13T12:39:45;14.43;;;10.13;;
36747;SDS011;22716;51.556;5.080;2023-02-13T12:42:23;13.33;;;9.80;;
36747;SDS011;22716;51.556;5.080;2023-02-13T12:45:15;13.50;;;9.07;;
36747;SDS011;22716;51.556;5.080;2023-02-13T12:48:03;11.97;;;9.13;;
36747;SDS011;22716;51.556;5.080;2023-02-13T12:50:53;12.50;;;9.60;;
36747;SDS011;22716;51.556;5.080;2023-02-13T12:53:33;13.83;;;9.03;;
36747;SDS011;22716;51.556;5.080;2023-02-13T12:56:39;13.77;;;8.70;;
36747;SDS011;22716;51.556;5.080;2023-02-13T12:59:18;15.33;;;9.03;;
36747;SDS011;22716;51.556;5.080;2023-02-13T13:02:17;13.47;;;9.57;;
36747;SDS011;22716;51.556;5.080;2023-02-13T13:05:08;12.87;;;9.00;;
36747;SDS011;22716;51.556;5.080;2023-02-13T13:07:59;12.63;;;9.30;;
36747;SDS011;22716;51.556;5.080;2023-02-13T13:10:49;13.07;;;8.77;;
36747;SDS011;22716;51.556;5.080;2023-02-13T13:13:30;12.23;;;8.27;;
36747;SDS011;22716;51.556;5.080;2023-02-13T13:16:11;12.73;;;8.60;;
36747;SDS011;22716;51.556;5.080;2023-02-13T13:18:50;13.77;;;9.07;;
36747;SDS011;22716;51.556;5.080;2023-02-13T13:21:33;14.57;;;10.57;;
36747;SDS011;22716;51.556;5.080;2023-02-13T13:24:12;12.97;;;8.50;;
36747;SDS011;22716;51.556;5.080;2023-02-13T13:26:54;13.53;;;9.70;;
36747;SDS011;22716;51.556;5.080;2023-02-13T13:29:25;14.37;;;9.67;;
36747;SDS011;22716;51.556;5.080;2023-02-13T13:32:00;13.57;;;10.27;;
36747;SDS011;22716;51.556;5.080;2023-02-13T13:34:33;14.40;;;10.00;;
36747;SDS011;22716;51.556;5.080;2023-02-13T13:37:08;14.33;;;9.50;;
36747;SDS011;22716;51.556;5.080;2023-02-13T13:39:45;13.47;;;9.37;;
36747;SDS011;22716;51.556;5.080;2023-02-13T13:42:26;15.70;;;10.37;;
36747;SDS011;22716;51.556;5.080;2023-02-13T13:45:07;12.20;;;9.30;;
36747;SDS011;22716;51.556;5.080;2023-02-13T13:47:50;14.33;;;9.60;;
36747;SDS011;22716;51.556;5.080;2023-02-13T13:50:32;16.40;;;10.77;;
36747;SDS011;22716;51.556;5.080;2023-02-13T13:53:08;15.50;;;10.27;;
36747;SDS011;22716;51.556;5.080;2023-02-13T13:56:00;17.47;;;11.83;;
36747;SDS011;22716;51.556;5.080;2023-02-13T13:58:39;19.40;;;11.57;;
36747;SDS011;22716;51.556;5.080;2023-02-13T14:01:26;16.57;;;11.77;;
36747;SDS011;22716;51.556;5.080;2023-02-13T14:03:56;18.13;;;11.87;;
36747;SDS011;22716;51.556;5.080;2023-02-13T14:06:28;18.03;;;11.53;;
36747;SDS011;22716;51.556;5.080;2023-02-13T14:09:41;17.90;;;11.40;;
36747;SDS011;22716;51.556;5.080;2023-02-13T14:18:17;14.97;;;10.40;;
36747;SDS011;22716;51.556;5.080;2023-02-13T14:20:49;17.80;;;11.53;;
36747;SDS011;22716;51.556;5.080;2023-02-13T14:23:31;15.77;;;10.83;;
36747;SDS011;22716;51.556;5.080;2023-02-13T14:26:09;18.50;;;11.63;;
36747;SDS011;22716;51.556;5.080;2023-02-13T14:28:40;15.75;;;11.00;;
36747;SDS011;22716;51.556;5.080;2023-02-13T14:31:15;16.50;;;11.37;;
36747;SDS011;22716;51.556;5.080;2023-02-13T14:33:55;18.07;;;10.80;;
36747;SDS011;22716;51.556;5.080;2023-02-13T14:36:27;17.40;;;9.93;;
36747;SDS011;22716;51.556;5.080;2023-02-13T14:38:59;13.07;;;8.70;;
36747;SDS011;22716;51.556;5.080;2023-02-13T14:41:42;9.37;;;7.13;;
36747;SDS011;22716;51.556;5.080;2023-02-13T14:44:15;12.30;;;8.27;;
36747;SDS011;22716;51.556;5.080;2023-02-13T14:46:47;11.23;;;7.33;;
36747;SDS011;22716;51.556;5.080;2023-02-13T14:49:21;12.90;;;8.33;;
36747;SDS011;22716;51.556;5.080;2023-02-13T14:51:53;11.47;;;8.50;;
36747;SDS011;22716;51.556;5.080;2023-02-13T14:54:25;12.73;;;8.23;;
36747;SDS011;22716;51.556;5.080;2023-02-13T14:56:59;11.70;;;8.60;;
36747;SDS011;22716;51.556;5.080;2023-02-13T14:59:35;9.90;;;7.77;;
36747;SDS011;22716;51.556;5.080;2023-02-13T15:02:11;12.20;;;8.27;;
36747;SDS011;22716;51.556;5.080;2023-02-13T15:04:47;14.50;;;8.73;;
36747;SDS011;22716;51.556;5.080;2023-02-13T15:07:21;10.60;;;8.33;;
36747;SDS011;22716;51.556;5.080;2023-02-13T15:09:55;14.45;;;9.23;;
36747;SDS011;22716;51.556;5.080;2023-02-13T15:12:28;15.40;;;9.43;;
36747;SDS011;22716;51.556;5.080;2023-02-13T15:14:59;12.93;;;9.60;;
36747;SDS011;22716;51.556;5.080;2023-02-13T15:17:30;15.63;;;9.63;;
36747;SDS011;22716;51.556;5.080;2023-02-13T15:20:07;14.17;;;9.70;;
36747;SDS011;22716;51.556;5.080;2023-02-13T15:22:49;13.90;;;8.70;;
36747;SDS011;22716;51.556;5.080;2023-02-13T15:25:22;15.40;;;10.40;;
36747;SDS011;22716;51.556;5.080;2023-02-13T15:27:56;12.87;;;9.03;;